Terminal Aerodrome Forecast
Issued by NWS

Home | Current Version | Previous Version | Text Only | Print | Product List | Glossary On
Versions: 1 2 3 4 5 6 7 8 9 10 11 12 13 14 15 16 17 18 19
000
FTUS44 KOHX 022006 AAA
TAFCKV
TAF AMD
KCKV 022006Z 0220/0318 22008KT P6SM VCTS BKN040CB BKN070
      TEMPO 0220/0222 19010G15KT 5SM -TSRA BKN020CB
     FM030100 23005KT P6SM SCT050 BKN100
     FM030800 27005KT P6SM OVC025
     FM031000 27005KT 5SM BR OVC015=

USA.gov is the U.S. government's official web portal to all federal, state and local government web resources and services.